sensor_id;sensor_type;location;lat;lon;timestamp;pressure;altitude;pressure_sealevel;temperature
20848;BMP180;10584;50.854;12.902;2023-06-24T00:01:02;98847.00;;;15.20
20848;BMP180;10584;50.854;12.902;2023-06-24T00:06:24;98843.00;;;15.20
20848;BMP180;10584;50.854;12.902;2023-06-24T00:12:12;98837.00;;;15.20
20848;BMP180;10584;50.854;12.902;2023-06-24T00:17:48;98843.00;;;15.20
20848;BMP180;10584;50.854;12.902;2023-06-24T00:23:28;98842.00;;;15.20
20848;BMP180;10584;50.854;12.902;2023-06-24T00:29:08;98841.00;;;15.20
20848;BMP180;10584;50.854;12.902;2023-06-24T00:34:35;98839.00;;;15.20
20848;BMP180;10584;50.854;12.902;2023-06-24T00:39:57;98852.00;;;15.20
20848;BMP180;10584;50.854;12.902;2023-06-24T00:45:18;98848.00;;;15.20
20848;BMP180;10584;50.854;12.902;2023-06-24T00:50:40;98845.00;;;15.10
20848;BMP180;10584;50.854;12.902;2023-06-24T00:56:29;98842.00;;;15.10
20848;BMP180;10584;50.854;12.902;2023-06-24T01:01:55;98845.00;;;15.10
20848;BMP180;10584;50.854;12.902;2023-06-24T01:07:44;98843.00;;;15.10
20848;BMP180;10584;50.854;12.902;2023-06-24T01:13:21;98844.00;;;15.00
20848;BMP180;10584;50.854;12.902;2023-06-24T01:18:57;98837.00;;;15.00
20848;BMP180;10584;50.854;12.902;2023-06-24T01:35:59;98844.00;;;14.80
20848;BMP180;10584;50.854;12.902;2023-06-24T01:42:06;98831.00;;;14.70
20848;BMP180;10584;50.854;12.902;2023-06-24T01:48:01;98837.00;;;14.70
20848;BMP180;10584;50.854;12.902;2023-06-24T01:53:48;98829.00;;;14.80
20848;BMP180;10584;50.854;12.902;2023-06-24T01:59:28;98835.00;;;14.70
20848;BMP180;10584;50.854;12.902;2023-06-24T02:04:58;98834.00;;;14.80
20848;BMP180;10584;50.854;12.902;2023-06-24T02:10:22;98833.00;;;14.70
20848;BMP180;10584;50.854;12.902;2023-06-24T02:15:44;98826.00;;;14.70
20848;BMP180;10584;50.854;12.902;2023-06-24T02:21:09;98827.00;;;14.80
20848;BMP180;10584;50.854;12.902;2023-06-24T02:27:18;98829.00;;;14.80
20848;BMP180;10584;50.854;12.902;2023-06-24T02:33:06;98811.00;;;14.70
20848;BMP180;10584;50.854;12.902;2023-06-24T02:38:42;98816.00;;;14.80
20848;BMP180;10584;50.854;12.902;2023-06-24T02:44:20;98817.00;;;14.70
20848;BMP180;10584;50.854;12.902;2023-06-24T02:49:49;98831.00;;;14.70
20848;BMP180;10584;50.854;12.902;2023-06-24T02:55:12;98821.00;;;14.70
20848;BMP180;10584;50.854;12.902;2023-06-24T03:00:38;98831.00;;;14.60
20848;BMP180;10584;50.854;12.902;2023-06-24T03:06:20;98830.00;;;14.60
20848;BMP180;10584;50.854;12.902;2023-06-24T03:12:12;98834.00;;;14.40
20848;BMP180;10584;50.854;12.902;2023-06-24T03:17:45;98843.00;;;14.40
20848;BMP180;10584;50.854;12.902;2023-06-24T03:23:15;98840.00;;;14.30
20848;BMP180;10584;50.854;12.902;2023-06-24T03:28:57;98846.00;;;14.20
20848;BMP180;10584;50.854;12.902;2023-06-24T03:34:26;98863.00;;;14.20
20848;BMP180;10584;50.854;12.902;2023-06-24T03:39:52;98861.00;;;14.20
20848;BMP180;10584;50.854;12.902;2023-06-24T03:45:15;98870.00;;;14.30
20848;BMP180;10584;50.854;12.902;2023-06-24T03:50:38;98867.00;;;14.30
20848;BMP180;10584;50.854;12.902;2023-06-24T03:56:23;98875.00;;;14.40
20848;BMP180;10584;50.854;12.902;2023-06-24T04:01:56;98884.00;;;14.40
20848;BMP180;10584;50.854;12.902;2023-06-24T04:07:35;98883.00;;;14.60
20848;BMP180;10584;50.854;12.902;2023-06-24T04:13:20;98898.00;;;14.60
20848;BMP180;10584;50.854;12.902;2023-06-24T04:18:50;98913.00;;;14.70
20848;BMP180;10584;50.854;12.902;2023-06-24T04:24:19;98919.00;;;14.70
20848;BMP180;10584;50.854;12.902;2023-06-24T04:29:41;98923.00;;;14.80
20848;BMP180;10584;50.854;12.902;2023-06-24T04:35:04;98917.00;;;14.80
20848;BMP180;10584;50.854;12.902;2023-06-24T04:40:27;98919.00;;;15.00
20848;BMP180;10584;50.854;12.902;2023-06-24T04:45:54;98920.00;;;14.90
20848;BMP180;10584;50.854;12.902;2023-06-24T04:51:32;98922.00;;;15.10
20848;BMP180;10584;50.854;12.902;2023-06-24T04:57:22;98930.00;;;15.20
20848;BMP180;10584;50.854;12.902;2023-06-24T05:02:58;98944.00;;;15.30
20848;BMP180;10584;50.854;12.902;2023-06-24T05:08:38;98933.00;;;15.50
20848;BMP180;10584;50.854;12.902;2023-06-24T05:14:02;98930.00;;;15.60
20848;BMP180;10584;50.854;12.902;2023-06-24T05:19:29;98937.00;;;15.50
20848;BMP180;10584;50.854;12.902;2023-06-24T05:24:50;98948.00;;;15.70
20848;BMP180;10584;50.854;12.902;2023-06-24T05:30:12;98947.00;;;15.70
20848;BMP180;10584;50.854;12.902;2023-06-24T05:35:34;98948.00;;;15.70
20848;BMP180;10584;50.854;12.902;2023-06-24T05:41:01;98944.00;;;15.90
20848;BMP180;10584;50.854;12.902;2023-06-24T05:46:33;98947.00;;;15.80
20848;BMP180;10584;50.854;12.902;2023-06-24T05:51:58;98943.00;;;15.70
20848;BMP180;10584;50.854;12.902;2023-06-24T05:57:28;98943.00;;;15.70
20848;BMP180;10584;50.854;12.902;2023-06-24T06:03:10;98934.00;;;15.90
20848;BMP180;10584;50.854;12.902;2023-06-24T06:08:49;98944.00;;;16.10
20848;BMP180;10584;50.854;12.902;2023-06-24T06:14:12;98948.00;;;16.10
20848;BMP180;10584;50.854;12.902;2023-06-24T06:19:38;98958.00;;;16.40
20848;BMP180;10584;50.854;12.902;2023-06-24T06:25:05;98956.00;;;16.60
20848;BMP180;10584;50.854;12.902;2023-06-24T06:30:27;98957.00;;;16.50
20848;BMP180;10584;50.854;12.902;2023-06-24T06:35:52;98953.00;;;16.30
20848;BMP180;10584;50.854;12.902;2023-06-24T06:41:29;98945.00;;;16.40
20848;BMP180;10584;50.854;12.902;2023-06-24T06:47:15;98935.00;;;16.50
20848;BMP180;10584;50.854;12.902;2023-06-24T06:52:49;98949.00;;;16.70
20848;BMP180;10584;50.854;12.902;2023-06-24T06:58:16;98967.00;;;16.90
20848;BMP180;10584;50.854;12.902;2023-06-24T07:03:56;98952.00;;;16.80
20848;BMP180;10584;50.854;12.902;2023-06-24T07:09:41;98951.00;;;16.90
20848;BMP180;10584;50.854;12.902;2023-06-24T07:15:27;98959.00;;;16.90
20848;BMP180;10584;50.854;12.902;2023-06-24T07:21:00;98968.00;;;17.10
20848;BMP180;10584;50.854;12.902;2023-06-24T07:27:02;98973.00;;;17.50
20848;BMP180;10584;50.854;12.902;2023-06-24T07:32:48;98968.00;;;17.70
20848;BMP180;10584;50.854;12.902;2023-06-24T07:38:49;98966.00;;;17.80
20848;BMP180;10584;50.854;12.902;2023-06-24T07:44:16;98971.00;;;17.80
20848;BMP180;10584;50.854;12.902;2023-06-24T07:49:45;98976.00;;;17.70
20848;BMP180;10584;50.854;12.902;2023-06-24T07:55:07;98964.00;;;17.60
20848;BMP180;10584;50.854;12.902;2023-06-24T08:00:29;98968.00;;;18.00
20848;BMP180;10584;50.854;12.902;2023-06-24T08:05:55;98965.00;;;18.00
20848;BMP180;10584;50.854;12.902;2023-06-24T08:11:26;98951.00;;;18.20
20848;BMP180;10584;50.854;12.902;2023-06-24T08:16:54;98960.00;;;18.20
20848;BMP180;10584;50.854;12.902;2023-06-24T08:22:43;98967.00;;;18.40
20848;BMP180;10584;50.854;12.902;2023-06-24T08:28:26;98959.00;;;18.30
20848;BMP180;10584;50.854;12.902;2023-06-24T08:34:02;98974.00;;;18.50
20848;BMP180;10584;50.854;12.902;2023-06-24T08:39:30;98985.00;;;18.20
20848;BMP180;10584;50.854;12.902;2023-06-24T08:44:51;98990.00;;;18.40
20848;BMP180;10584;50.854;12.902;2023-06-24T08:50:13;98987.00;;;18.50
20848;BMP180;10584;50.854;12.902;2023-06-24T08:55:43;98985.00;;;18.60
20848;BMP180;10584;50.854;12.902;2023-06-24T09:01:09;98982.00;;;18.60
20848;BMP180;10584;50.854;12.902;2023-06-24T09:06:47;98990.00;;;18.70
20848;BMP180;10584;50.854;12.902;2023-06-24T09:12:27;98977.00;;;19.10
20848;BMP180;10584;50.854;12.902;2023-06-24T09:18:09;98988.00;;;19.30
20848;BMP180;10584;50.854;12.902;2023-06-24T09:23:44;98985.00;;;19.50
20848;BMP180;10584;50.854;12.902;2023-06-24T09:29:27;98989.00;;;19.30
20848;BMP180;10584;50.854;12.902;2023-06-24T09:34:51;98983.00;;;19.50
20848;BMP180;10584;50.854;12.902;2023-06-24T09:40:12;98986.00;;;19.50
20848;BMP180;10584;50.854;12.902;2023-06-24T09:45:35;98985.00;;;19.90
20848;BMP180;10584;50.854;12.902;2023-06-24T09:51:03;98997.00;;;20.00
20848;BMP180;10584;50.854;12.902;2023-06-24T09:56:59;98982.00;;;19.90
20848;BMP180;10584;50.854;12.902;2023-06-24T10:02:56;98986.00;;;20.20
20848;BMP180;10584;50.854;12.902;2023-06-24T10:08:44;98983.00;;;20.20
20848;BMP180;10584;50.854;12.902;2023-06-24T10:14:17;98996.00;;;20.00
20848;BMP180;10584;50.854;12.902;2023-06-24T10:19:40;98989.00;;;19.80
20848;BMP180;10584;50.854;12.902;2023-06-24T10:25:06;98995.00;;;20.30
20848;BMP180;10584;50.854;12.902;2023-06-24T10:30:31;98990.00;;;20.30
20848;BMP180;10584;50.854;12.902;2023-06-24T10:36:03;98998.00;;;20.10
20848;BMP180;10584;50.854;12.902;2023-06-24T10:42:24;98984.00;;;20.30
20848;BMP180;10584;50.854;12.902;2023-06-24T10:48:11;98981.00;;;20.80
20848;BMP180;10584;50.854;12.902;2023-06-24T10:53:48;98982.00;;;20.90
20848;BMP180;10584;50.854;12.902;2023-06-24T10:59:26;98970.00;;;21.10
20848;BMP180;10584;50.854;12.902;2023-06-24T11:04:58;98975.00;;;21.30
20848;BMP180;10584;50.854;12.902;2023-06-24T11:10:30;98961.00;;;21.30
20848;BMP180;10584;50.854;12.902;2023-06-24T11:16:21;98960.00;;;21.30
20848;BMP180;10584;50.854;12.902;2023-06-24T11:22:42;98949.00;;;21.20
20848;BMP180;10584;50.854;12.902;2023-06-24T11:28:45;98946.00;;;21.40
20848;BMP180;10584;50.854;12.902;2023-06-24T11:34:21;98943.00;;;21.70
20848;BMP180;10584;50.854;12.902;2023-06-24T11:39:44;98943.00;;;21.70
20848;BMP180;10584;50.854;12.902;2023-06-24T11:45:11;98935.00;;;22.10
20848;BMP180;10584;50.854;12.902;2023-06-24T11:50:36;98942.00;;;22.20
20848;BMP180;10584;50.854;12.902;2023-06-24T11:56:01;98941.00;;;22.50
20848;BMP180;10584;50.854;12.902;2023-06-24T12:01:54;98932.00;;;22.50
20848;BMP180;10584;50.854;12.902;2023-06-24T12:07:39;98928.00;;;22.50
20848;BMP180;10584;50.854;12.902;2023-06-24T12:13:06;98933.00;;;22.50
20848;BMP180;10584;50.854;12.902;2023-06-24T12:18:39;98927.00;;;22.50
20848;BMP180;10584;50.854;12.902;2023-06-24T12:24:11;98913.00;;;22.80
20848;BMP180;10584;50.854;12.902;2023-06-24T12:29:40;98926.00;;;23.00
20848;BMP180;10584;50.854;12.902;2023-06-24T12:35:01;98917.00;;;22.90
20848;BMP180;10584;50.854;12.902;2023-06-24T12:40:24;98909.00;;;23.10
20848;BMP180;10584;50.854;12.902;2023-06-24T12:45:46;98915.00;;;23.30
20848;BMP180;10584;50.854;12.902;2023-06-24T12:51:29;98913.00;;;23.30
20848;BMP180;10584;50.854;12.902;2023-06-24T12:57:01;98913.00;;;23.30
20848;BMP180;10584;50.854;12.902;2023-06-24T13:02:45;98910.00;;;23.30
20848;BMP180;10584;50.854;12.902;2023-06-24T13:08:44;98910.00;;;23.70
20848;BMP180;10584;50.854;12.902;2023-06-24T13:14:21;98910.00;;;23.90
20848;BMP180;10584;50.854;12.902;2023-06-24T13:19:43;98910.00;;;23.70
20848;BMP180;10584;50.854;12.902;2023-06-24T13:25:05;98911.00;;;24.00
20848;BMP180;10584;50.854;12.902;2023-06-24T13:30:28;98915.00;;;24.10
20848;BMP180;10584;50.854;12.902;2023-06-24T13:35:59;98910.00;;;24.00
20848;BMP180;10584;50.854;12.902;2023-06-24T13:41:50;98912.00;;;24.20
20848;BMP180;10584;50.854;12.902;2023-06-24T13:47:41;98902.00;;;24.30
20848;BMP180;10584;50.854;12.902;2023-06-24T13:53:21;98897.00;;;24.50
20848;BMP180;10584;50.854;12.902;2023-06-24T13:58:59;98901.00;;;24.50
20848;BMP180;10584;50.854;12.902;2023-06-24T14:04:32;98897.00;;;24.60
20848;BMP180;10584;50.854;12.902;2023-06-24T14:10:18;98891.00;;;24.80
20848;BMP180;10584;50.854;12.902;2023-06-24T14:15:40;98886.00;;;24.90
20848;BMP180;10584;50.854;12.902;2023-06-24T14:21:20;98886.00;;;24.60
20848;BMP180;10584;50.854;12.902;2023-06-24T14:27:06;98885.00;;;24.60
20848;BMP180;10584;50.854;12.902;2023-06-24T14:32:50;98875.00;;;24.80
20848;BMP180;10584;50.854;12.902;2023-06-24T14:38:35;98870.00;;;25.00
20848;BMP180;10584;50.854;12.902;2023-06-24T14:44:14;98881.00;;;24.70
20848;BMP180;10584;50.854;12.902;2023-06-24T14:49:41;98876.00;;;24.90
20848;BMP180;10584;50.854;12.902;2023-06-24T14:55:02;98872.00;;;24.90
20848;BMP180;10584;50.854;12.902;2023-06-24T15:00:24;98867.00;;;25.10
20848;BMP180;10584;50.854;12.902;2023-06-24T15:05:56;98867.00;;;25.00
20848;BMP180;10584;50.854;12.902;2023-06-24T15:11:32;98856.00;;;25.00
20848;BMP180;10584;50.854;12.902;2023-06-24T15:17:11;98850.00;;;25.20
20848;BMP180;10584;50.854;12.902;2023-06-24T15:22:57;98851.00;;;25.00
20848;BMP180;10584;50.854;12.902;2023-06-24T15:28:29;98845.00;;;25.00
20848;BMP180;10584;50.854;12.902;2023-06-24T15:34:08;98839.00;;;25.00
20848;BMP180;10584;50.854;12.902;2023-06-24T15:39:37;98837.00;;;25.00
20848;BMP180;10584;50.854;12.902;2023-06-24T15:44:58;98839.00;;;25.10
20848;BMP180;10584;50.854;12.902;2023-06-24T15:50:20;98832.00;;;25.20
20848;BMP180;10584;50.854;12.902;2023-06-24T15:55:41;98829.00;;;25.10
20848;BMP180;10584;50.854;12.902;2023-06-24T16:01:03;98824.00;;;25.20
20848;BMP180;10584;50.854;12.902;2023-06-24T16:06:43;98824.00;;;25.30
20848;BMP180;10584;50.854;12.902;2023-06-24T16:12:21;98831.00;;;25.40
20848;BMP180;10584;50.854;12.902;2023-06-24T16:17:50;98815.00;;;25.30
20848;BMP180;10584;50.854;12.902;2023-06-24T16:23:31;98815.00;;;25.50
20848;BMP180;10584;50.854;12.902;2023-06-24T16:29:03;98817.00;;;25.40
20848;BMP180;10584;50.854;12.902;2023-06-24T16:34:31;98818.00;;;25.20
20848;BMP180;10584;50.854;12.902;2023-06-24T16:39:52;98804.00;;;25.50
20848;BMP180;10584;50.854;12.902;2023-06-24T16:45:14;98806.00;;;25.30
20848;BMP180;10584;50.854;12.902;2023-06-24T16:50:35;98802.00;;;25.20
20848;BMP180;10584;50.854;12.902;2023-06-24T16:56:00;98805.00;;;25.00
20848;BMP180;10584;50.854;12.902;2023-06-24T17:01:54;98811.00;;;25.10
20848;BMP180;10584;50.854;12.902;2023-06-24T17:07:37;98807.00;;;25.10
20848;BMP180;10584;50.854;12.902;2023-06-24T17:13:06;98811.00;;;25.20
20848;BMP180;10584;50.854;12.902;2023-06-24T17:18:51;98813.00;;;25.10
20848;BMP180;10584;50.854;12.902;2023-06-24T17:24:22;98812.00;;;25.00
20848;BMP180;10584;50.854;12.902;2023-06-24T17:29:43;98816.00;;;25.00
20848;BMP180;10584;50.854;12.902;2023-06-24T17:35:05;98804.00;;;24.90
20848;BMP180;10584;50.854;12.902;2023-06-24T17:40:27;98808.00;;;24.90
20848;BMP180;10584;50.854;12.902;2023-06-24T17:45:58;98806.00;;;24.90
20848;BMP180;10584;50.854;12.902;2023-06-24T17:51:43;98803.00;;;24.50
20848;BMP180;10584;50.854;12.902;2023-06-24T17:57:24;98802.00;;;24.70
20848;BMP180;10584;50.854;12.902;2023-06-24T18:03:00;98810.00;;;24.40
20848;BMP180;10584;50.854;12.902;2023-06-24T18:08:47;98807.00;;;24.50
20848;BMP180;10584;50.854;12.902;2023-06-24T18:14:10;98803.00;;;24.60
20848;BMP180;10584;50.854;12.902;2023-06-24T18:19:37;98802.00;;;24.40
20848;BMP180;10584;50.854;12.902;2023-06-24T18:25:02;98805.00;;;24.40
20848;BMP180;10584;50.854;12.902;2023-06-24T18:30:23;98802.00;;;24.30
20848;BMP180;10584;50.854;12.902;2023-06-24T18:35:48;98797.00;;;24.20
20848;BMP180;10584;50.854;12.902;2023-06-24T18:41:26;98798.00;;;24.00
20848;BMP180;10584;50.854;12.902;2023-06-24T18:47:13;98801.00;;;23.60
20848;BMP180;10584;50.854;12.902;2023-06-24T18:52:53;98800.00;;;23.30
20848;BMP180;10584;50.854;12.902;2023-06-24T18:58:36;98803.00;;;22.90
20848;BMP180;10584;50.854;12.902;2023-06-24T19:04:11;98794.00;;;22.60
20848;BMP180;10584;50.854;12.902;2023-06-24T19:09:57;98800.00;;;22.20
20848;BMP180;10584;50.854;12.902;2023-06-24T19:15:37;98795.00;;;21.90
20848;BMP180;10584;50.854;12.902;2023-06-24T19:21:25;98798.00;;;21.50
20848;BMP180;10584;50.854;12.902;2023-06-24T19:26:51;98800.00;;;21.20
20848;BMP180;10584;50.854;12.902;2023-06-24T19:32:14;98793.00;;;20.90
20848;BMP180;10584;50.854;12.902;2023-06-24T19:37:59;98800.00;;;20.60
20848;BMP180;10584;50.854;12.902;2023-06-24T19:43:39;98801.00;;;20.30
20848;BMP180;10584;50.854;12.902;2023-06-24T19:49:16;98804.00;;;20.00
20848;BMP180;10584;50.854;12.902;2023-06-24T19:54:43;98798.00;;;19.70
20848;BMP180;10584;50.854;12.902;2023-06-24T20:00:05;98788.00;;;19.50
20848;BMP180;10584;50.854;12.902;2023-06-24T20:05:52;98791.00;;;19.20
20848;BMP180;10584;50.854;12.902;2023-06-24T20:11:34;98783.00;;;19.00
20848;BMP180;10584;50.854;12.902;2023-06-24T20:17:16;98780.00;;;18.70
20848;BMP180;10584;50.854;12.902;2023-06-24T20:22:51;98775.00;;;18.50
20848;BMP180;10584;50.854;12.902;2023-06-24T20:28:36;98780.00;;;18.20
20848;BMP180;10584;50.854;12.902;2023-06-24T20:34:12;98771.00;;;18.00
20848;BMP180;10584;50.854;12.902;2023-06-24T20:39:39;98768.00;;;17.80
20848;BMP180;10584;50.854;12.902;2023-06-24T20:45:02;98765.00;;;17.60
20848;BMP180;10584;50.854;12.902;2023-06-24T20:50:24;98765.00;;;17.50
20848;BMP180;10584;50.854;12.902;2023-06-24T20:55:49;98767.00;;;17.30
20848;BMP180;10584;50.854;12.902;2023-06-24T21:01:31;98770.00;;;17.10
20848;BMP180;10584;50.854;12.902;2023-06-24T21:07:22;98758.00;;;17.00
20848;BMP180;10584;50.854;12.902;2023-06-24T21:13:02;98765.00;;;16.80
20848;BMP180;10584;50.854;12.902;2023-06-24T21:18:48;98757.00;;;16.60
20848;BMP180;10584;50.854;12.902;2023-06-24T21:24:13;98761.00;;;16.50
20848;BMP180;10584;50.854;12.902;2023-06-24T21:29:39;98756.00;;;16.30
20848;BMP180;10584;50.854;12.902;2023-06-24T21:35:01;98750.00;;;16.20
20848;BMP180;10584;50.854;12.902;2023-06-24T21:40:23;98757.00;;;16.10
20848;BMP180;10584;50.854;12.902;2023-06-24T21:45:44;98763.00;;;15.90
20848;BMP180;10584;50.854;12.902;2023-06-24T21:51:18;98756.00;;;15.80
20848;BMP180;10584;50.854;12.902;2023-06-24T21:57:16;98760.00;;;15.70
20848;BMP180;10584;50.854;12.902;2023-06-24T22:02:56;98761.00;;;15.60
20848;BMP180;10584;50.854;12.902;2023-06-24T22:08:53;98756.00;;;15.50
20848;BMP180;10584;50.854;12.902;2023-06-24T22:14:31;98757.00;;;15.40
20848;BMP180;10584;50.854;12.902;2023-06-24T22:19:54;98756.00;;;15.30
20848;BMP180;10584;50.854;12.902;2023-06-24T22:25:16;98757.00;;;15.20
20848;BMP180;10584;50.854;12.902;2023-06-24T22:30:37;98757.00;;;15.10
20848;BMP180;10584;50.854;12.902;2023-06-24T22:36:03;98756.00;;;15.00
20848;BMP180;10584;50.854;12.902;2023-06-24T22:41:54;98763.00;;;14.90
20848;BMP180;10584;50.854;12.902;2023-06-24T22:47:47;98758.00;;;14.80
20848;BMP180;10584;50.854;12.902;2023-06-24T22:53:27;98768.00;;;14.70
20848;BMP180;10584;50.854;12.902;2023-06-24T22:58:59;98763.00;;;14.60
20848;BMP180;10584;50.854;12.902;2023-06-24T23:04:36;98755.00;;;14.60
20848;BMP180;10584;50.854;12.902;2023-06-24T23:10:17;98743.00;;;14.50
20848;BMP180;10584;50.854;12.902;2023-06-24T23:15:39;98739.00;;;14.40
20848;BMP180;10584;50.854;12.902;2023-06-24T23:21:19;98740.00;;;14.40
20848;BMP180;10584;50.854;12.902;2023-06-24T23:27:00;98748.00;;;14.40
20848;BMP180;10584;50.854;12.902;2023-06-24T23:32:49;98750.00;;;14.40
20848;BMP180;10584;50.854;12.902;2023-06-24T23:38:48;98748.00;;;14.40
20848;BMP180;10584;50.854;12.902;2023-06-24T23:44:31;98747.00;;;14.30
20848;BMP180;10584;50.854;12.902;2023-06-24T23:49:59;98741.00;;;14.20
20848;BMP180;10584;50.854;12.902;2023-06-24T23:55:21;98748.00;;;14.10
